createdAt,value
2023-04-13T00:00:56.463Z,1.70
2023-04-13T00:03:26.012Z,2.10
2023-04-13T00:05:55.081Z,1.90
2023-04-13T00:08:24.680Z,1.70
2023-04-13T00:10:57.554Z,1.60
2023-04-13T00:13:26.752Z,1.80
2023-04-13T00:15:57.357Z,1.80
2023-04-13T00:18:25.827Z,2.00
2023-04-13T00:20:54.804Z,2.00
2023-04-13T00:23:23.336Z,1.70
2023-04-13T00:25:56.581Z,1.80
2023-04-13T00:28:25.764Z,1.60
2023-04-13T00:30:55.210Z,1.80
2023-04-13T00:33:24.223Z,1.80
2023-04-13T00:35:52.740Z,2.00
2023-04-13T00:38:21.323Z,1.70
2023-04-13T00:40:55.940Z,1.90
2023-04-13T00:43:25.695Z,1.50
2023-04-13T00:45:54.602Z,2.30
2023-04-13T00:48:27.396Z,1.90
2023-04-13T00:50:56.238Z,2.10
2023-04-13T00:53:24.736Z,1.70
2023-04-13T00:55:53.584Z,1.70
2023-04-13T00:58:22.563Z,2.10
2023-04-13T01:00:51.246Z,2.00
2023-04-13T01:03:21.796Z,2.20
2023-04-13T01:06:18.067Z,2.40
2023-04-13T01:08:54.176Z,1.70
2023-04-13T01:11:28.074Z,2.20
2023-04-13T01:14:24.927Z,1.80
2023-04-13T01:16:59.300Z,2.00
2023-04-13T01:19:27.725Z,1.80
2023-04-13T01:21:58.159Z,2.10
2023-04-13T01:24:40.861Z,2.10
2023-04-13T01:27:20.843Z,2.10
2023-04-13T01:29:49.624Z,2.20
2023-04-13T01:32:19.022Z,2.30
2023-04-13T01:34:47.844Z,2.60
2023-04-13T01:37:17.710Z,2.20
2023-04-13T01:39:49.365Z,2.10
2023-04-13T01:42:32.895Z,2.00
2023-04-13T01:45:05.813Z,2.50
2023-04-13T01:47:34.279Z,2.70
2023-04-13T01:50:13.629Z,2.90
2023-04-13T01:53:11.468Z,2.10
2023-04-13T01:55:44.195Z,2.10
2023-04-13T02:00:47.149Z,2.30
2023-04-13T02:03:16.765Z,1.70
2023-04-13T02:05:46.324Z,1.90
2023-04-13T02:08:15.926Z,2.20
2023-04-13T02:10:47.477Z,2.10
2023-04-13T02:13:17.174Z,2.40
2023-04-13T02:15:47.054Z,2.00
2023-04-13T02:18:16.444Z,1.90
2023-04-13T02:20:44.955Z,2.70
2023-04-13T02:23:18.263Z,2.30
2023-04-13T02:25:48.186Z,2.00
2023-04-13T02:28:20.858Z,2.20
2023-04-13T02:30:57.593Z,2.00
2023-04-13T02:33:32.114Z,2.50
2023-04-13T02:36:02.848Z,2.10
2023-04-13T02:38:37.578Z,2.30
2023-04-13T02:41:26.642Z,2.60
2023-04-13T02:43:56.087Z,2.20
2023-04-13T02:46:25.800Z,2.00
2023-04-13T02:49:06.025Z,1.90
2023-04-13T02:51:40.062Z,2.10
2023-04-13T02:54:11.608Z,1.80
2023-04-13T02:56:44.268Z,2.10
2023-04-13T02:59:12.734Z,1.90
2023-04-13T03:01:46.218Z,1.70
2023-04-13T03:04:17.512Z,1.90
2023-04-13T03:06:46.286Z,1.60
2023-04-13T03:09:16.409Z,2.10
2023-04-13T03:11:52.969Z,1.70
2023-04-13T03:14:30.101Z,1.90
2023-04-13T03:17:04.567Z,2.70
2023-04-13T03:19:39.722Z,2.20
2023-04-13T03:22:08.705Z,2.00
2023-04-13T03:24:41.894Z,2.20
2023-04-13T03:27:11.841Z,1.80
2023-04-13T03:29:46.021Z,2.20
2023-04-13T03:32:23.542Z,2.00
2023-04-13T03:34:58.929Z,2.30
2023-04-13T03:37:30.565Z,2.00
2023-04-13T03:40:02.170Z,2.40
2023-04-13T03:42:33.378Z,2.60
2023-04-13T03:45:03.144Z,2.10
2023-04-13T03:47:33.216Z,3.20
2023-04-13T03:50:02.231Z,3.40
2023-04-13T03:52:35.732Z,2.20
2023-04-13T03:55:05.675Z,2.00
2023-04-13T03:57:37.817Z,2.10
2023-04-13T04:00:14.306Z,2.30
2023-04-13T04:02:57.861Z,2.60
2023-04-13T04:05:32.435Z,1.90
2023-04-13T04:08:03.925Z,2.40
2023-04-13T04:10:32.833Z,2.20
2023-04-13T04:13:01.981Z,2.00
2023-04-13T04:15:31.785Z,2.30
2023-04-13T04:18:04.685Z,2.30
2023-04-13T04:20:33.973Z,2.10
2023-04-13T04:23:05.032Z,2.20
2023-04-13T04:25:40.823Z,2.10
2023-04-13T04:28:10.031Z,2.20
2023-04-13T04:30:38.647Z,1.90
2023-04-13T04:33:10.920Z,1.80
2023-04-13T04:35:51.533Z,2.10
2023-04-13T04:38:26.528Z,2.00
2023-04-13T04:40:57.817Z,1.70
2023-04-13T04:43:27.528Z,2.20
2023-04-13T04:45:58.056Z,2.40
2023-04-13T04:48:27.413Z,2.00
2023-04-13T04:51:08.649Z,2.20
2023-04-13T04:53:37.213Z,2.50
2023-04-13T04:56:07.117Z,2.30
2023-04-13T04:58:44.678Z,1.80
2023-04-13T05:01:13.456Z,1.90
2023-04-13T05:03:42.977Z,1.80
2023-04-13T05:06:25.690Z,2.20
2023-04-13T05:08:57.093Z,2.50
2023-04-13T05:11:26.850Z,2.30
2023-04-13T05:13:58.614Z,2.10
2023-04-13T05:16:31.007Z,1.80
2023-04-13T05:19:05.673Z,2.50
2023-04-13T05:22:01.374Z,2.60
2023-04-13T05:24:33.724Z,2.60
2023-04-13T05:27:03.956Z,2.10
2023-04-13T05:29:35.614Z,2.50
2023-04-13T05:32:04.598Z,3.00
2023-04-13T05:34:36.042Z,2.70
2023-04-13T05:37:12.394Z,2.90
2023-04-13T05:39:41.494Z,2.30
2023-04-13T05:42:10.612Z,2.60
2023-04-13T05:44:43.052Z,2.60
2023-04-13T05:47:12.361Z,2.30
2023-04-13T05:49:41.451Z,2.60
2023-04-13T05:52:10.673Z,2.20
2023-04-13T05:54:46.560Z,2.80
2023-04-13T05:57:15.081Z,2.40
2023-04-13T05:59:47.152Z,2.70
2023-04-13T06:02:21.054Z,1.90
2023-04-13T06:04:54.123Z,2.40
2023-04-13T06:07:22.956Z,2.30
2023-04-13T06:09:51.947Z,2.60
2023-04-13T06:12:22.161Z,3.00
2023-04-13T06:14:50.734Z,2.50
2023-04-13T06:17:19.463Z,2.50
2023-04-13T06:19:48.211Z,2.70
2023-04-13T06:22:17.010Z,2.60
2023-04-13T06:24:45.680Z,2.60
2023-04-13T06:27:14.365Z,2.60
2023-04-13T06:29:45.917Z,2.60
2023-04-13T06:32:15.142Z,2.60
2023-04-13T06:34:46.053Z,2.40
2023-04-13T06:37:16.111Z,2.40
2023-04-13T06:39:48.268Z,2.40
2023-04-13T06:42:21.533Z,2.20
2023-04-13T06:45:16.539Z,2.10
2023-04-13T06:47:45.050Z,2.30
2023-04-13T06:50:18.935Z,3.10
2023-04-13T06:52:48.224Z,2.40
2023-04-13T06:55:17.659Z,2.30
2023-04-13T06:57:47.132Z,2.50
2023-04-13T07:00:28.780Z,2.70
2023-04-13T07:02:58.972Z,1.70
2023-04-13T07:05:28.020Z,2.50
2023-04-13T07:08:00.173Z,2.00
2023-04-13T07:10:29.107Z,1.80
2023-04-13T07:12:58.528Z,2.20
2023-04-13T07:15:29.762Z,2.00
2023-04-13T07:17:58.371Z,2.40
2023-04-13T07:20:29.701Z,3.10
2023-04-13T07:22:58.889Z,2.30
2023-04-13T07:25:27.358Z,1.80
2023-04-13T07:27:58.104Z,2.50
2023-04-13T07:30:27.707Z,2.20
2023-04-13T07:32:58.300Z,2.60
2023-04-13T07:35:28.451Z,2.20
2023-04-13T07:37:57.493Z,2.60
2023-04-13T07:40:26.848Z,2.20
2023-04-13T07:42:57.172Z,2.10
2023-04-13T07:45:31.162Z,2.90
2023-04-13T07:47:59.711Z,3.00
2023-04-13T07:50:28.451Z,1.90
2023-04-13T07:52:57.546Z,2.30
2023-04-13T07:55:27.026Z,1.90
2023-04-13T07:57:55.976Z,2.30
2023-04-13T08:00:25.143Z,2.40
2023-04-13T08:02:57.517Z,2.80
2023-04-13T08:05:31.925Z,2.40
2023-04-13T08:08:00.796Z,2.30
2023-04-13T08:10:30.406Z,2.10
2023-04-13T08:13:00.518Z,3.00
2023-04-13T08:15:29.460Z,2.70
2023-04-13T08:17:59.989Z,2.70
2023-04-13T08:20:30.348Z,2.30
2023-04-13T08:23:01.493Z,2.30
2023-04-13T08:25:30.071Z,3.00
2023-04-13T08:27:59.048Z,2.60
2023-04-13T08:30:33.389Z,2.70
2023-04-13T08:33:04.823Z,2.70
2023-04-13T08:35:34.431Z,2.60
2023-04-13T08:38:09.542Z,2.50
2023-04-13T08:40:41.236Z,2.50
2023-04-13T08:43:13.445Z,2.50
2023-04-13T08:45:45.243Z,2.60
2023-04-13T08:48:16.000Z,2.60
2023-04-13T08:50:44.738Z,2.80
2023-04-13T08:55:48.716Z,2.60
2023-04-13T08:58:22.906Z,3.10
2023-04-13T09:00:56.677Z,2.40
2023-04-13T09:03:30.039Z,2.30
2023-04-13T09:06:01.850Z,2.40
2023-04-13T09:08:36.029Z,2.30
2023-04-13T09:11:06.441Z,2.10
2023-04-13T09:13:36.293Z,2.10
2023-04-13T09:16:05.384Z,2.30
2023-04-13T09:18:53.628Z,2.50
2023-04-13T09:21:37.452Z,2.80
2023-04-13T09:24:06.625Z,2.00
2023-04-13T09:26:45.404Z,2.40
2023-04-13T09:29:15.437Z,2.30
2023-04-13T09:31:47.546Z,3.20
2023-04-13T09:34:27.949Z,2.30
2023-04-13T09:36:58.639Z,2.10
2023-04-13T09:39:29.196Z,2.40
2023-04-13T09:41:58.858Z,3.70
2023-04-13T09:44:36.314Z,2.60
2023-04-13T09:47:07.138Z,2.10
2023-04-13T09:49:38.770Z,2.50
2023-04-13T09:52:25.228Z,2.70
2023-04-13T09:55:00.156Z,2.50
2023-04-13T09:57:30.406Z,2.50
2023-04-13T10:00:07.487Z,2.90
2023-04-13T10:02:43.299Z,2.80
2023-04-13T10:05:12.700Z,2.50
2023-04-13T10:07:44.810Z,2.50
2023-04-13T10:10:15.505Z,2.60
2023-04-13T10:12:47.192Z,2.10
2023-04-13T10:15:37.441Z,2.20
2023-04-13T10:18:33.802Z,2.50
2023-04-13T10:21:02.688Z,2.70
2023-04-13T10:23:32.442Z,2.30
2023-04-13T10:26:03.652Z,2.30
2023-04-13T10:31:13.421Z,2.60
2023-04-13T10:33:51.622Z,2.90
2023-04-13T10:36:19.968Z,2.50
2023-04-13T10:38:49.164Z,2.70
2023-04-13T10:41:29.118Z,2.80
2023-04-13T10:44:07.760Z,3.30
2023-04-13T10:46:36.860Z,3.10
2023-04-13T10:49:05.531Z,2.80
2023-04-13T10:51:44.297Z,3.00
2023-04-13T10:54:14.174Z,3.40
2023-04-13T10:56:45.256Z,3.80
2023-04-13T10:59:13.982Z,2.90
2023-04-13T11:01:42.472Z,3.80
2023-04-13T11:04:15.147Z,3.60
2023-04-13T11:06:45.596Z,2.50
2023-04-13T11:09:17.137Z,2.70
2023-04-13T11:11:51.651Z,2.80
2023-04-13T11:14:26.088Z,3.30
2023-04-13T11:16:58.315Z,3.50
2023-04-13T11:19:27.259Z,3.00
2023-04-13T11:21:59.944Z,2.90
2023-04-13T11:24:34.294Z,3.20
2023-04-13T11:27:03.978Z,2.80
2023-04-13T11:29:34.298Z,3.50
2023-04-13T11:32:03.836Z,3.60
2023-04-13T11:34:33.295Z,3.20
2023-04-13T11:37:07.634Z,2.40
2023-04-13T11:39:36.927Z,2.50
2023-04-13T11:42:07.038Z,3.10
2023-04-13T11:44:38.176Z,3.30
2023-04-13T11:47:06.834Z,3.00
2023-04-13T11:49:48.236Z,3.00
2023-04-13T11:52:17.636Z,3.00
2023-04-13T11:54:46.115Z,3.10
2023-04-13T11:57:16.016Z,3.50
2023-04-13T11:59:47.939Z,3.30
2023-04-13T12:02:29.837Z,2.90
2023-04-13T12:07:27.983Z,2.80
2023-04-13T12:09:59.455Z,3.20
2023-04-13T12:15:21.752Z,3.50
2023-04-13T12:17:57.863Z,2.70
2023-04-13T12:20:44.553Z,3.00
2023-04-13T12:23:23.081Z,4.00
2023-04-13T12:25:56.222Z,3.40
2023-04-13T12:28:37.849Z,3.50
2023-04-13T12:31:10.262Z,3.60
2023-04-13T12:33:39.923Z,2.90
2023-04-13T12:36:11.437Z,3.40
2023-04-13T12:38:40.158Z,3.80
2023-04-13T12:41:10.279Z,3.90
2023-04-13T12:43:38.967Z,4.00
2023-04-13T12:46:07.857Z,3.60
2023-04-13T12:48:36.510Z,3.20
2023-04-13T12:51:10.123Z,3.70
2023-04-13T12:53:39.139Z,3.60
2023-04-13T12:56:08.132Z,3.70
2023-04-13T12:58:37.638Z,3.40
2023-04-13T13:01:07.078Z,3.80
2023-04-13T13:03:39.275Z,3.20
2023-04-13T13:06:09.000Z,3.20
2023-04-13T13:08:39.895Z,3.80
2023-04-13T13:11:09.103Z,3.60
2023-04-13T13:13:37.999Z,3.60
2023-04-13T13:16:06.892Z,3.00
2023-04-13T13:18:49.899Z,2.90
2023-04-13T13:21:19.608Z,3.60
2023-04-13T13:23:48.236Z,3.40
2023-04-13T13:28:51.025Z,3.90
2023-04-13T13:31:19.961Z,3.20
2023-04-13T13:33:49.259Z,3.50
2023-04-13T13:36:20.593Z,3.90
2023-04-13T13:38:49.122Z,3.30
2023-04-13T13:41:20.178Z,3.20
2023-04-13T13:43:48.699Z,3.80
2023-04-13T13:46:18.621Z,4.30
2023-04-13T13:48:47.621Z,3.80
2023-04-13T13:51:42.931Z,3.80
2023-04-13T13:54:12.638Z,4.10
2023-04-13T13:56:41.102Z,3.90
2023-04-13T13:59:10.209Z,4.30
2023-04-13T14:01:39.598Z,3.70
2023-04-13T14:04:08.269Z,3.40
2023-04-13T14:06:38.485Z,3.70
2023-04-13T14:09:09.153Z,3.40
2023-04-13T14:11:37.724Z,3.20
2023-04-13T14:14:18.334Z,3.70
2023-04-13T14:16:49.848Z,3.20
2023-04-13T14:19:20.268Z,4.10
2023-04-13T14:21:49.570Z,2.90
2023-04-13T14:24:18.759Z,3.30
2023-04-13T14:26:47.350Z,3.30
2023-04-13T14:29:15.884Z,3.10
2023-04-13T14:31:44.586Z,3.40
2023-04-13T14:34:13.278Z,3.00
2023-04-13T14:36:42.529Z,3.30
2023-04-13T14:39:17.057Z,3.10
2023-04-13T14:41:46.352Z,3.70
2023-04-13T14:44:14.816Z,3.40
2023-04-13T14:46:44.882Z,3.50
2023-04-13T14:49:13.409Z,3.00
2023-04-13T14:51:42.156Z,3.50
2023-04-13T14:54:14.956Z,3.30
2023-04-13T14:56:44.585Z,3.50
2023-04-13T14:59:13.277Z,3.30
2023-04-13T15:01:42.525Z,3.70
2023-04-13T15:04:12.447Z,3.60
2023-04-13T15:06:41.381Z,3.70
2023-04-13T15:09:10.902Z,4.20
2023-04-13T15:11:41.210Z,3.50
2023-04-13T15:14:09.865Z,3.00
2023-04-13T15:16:38.529Z,3.20
2023-04-13T15:19:07.174Z,4.00
2023-04-13T15:24:08.757Z,4.40
2023-04-13T15:26:41.184Z,3.50
2023-04-13T15:29:11.579Z,3.60
2023-04-13T15:31:41.073Z,3.40
2023-04-13T15:34:09.756Z,4.00
2023-04-13T15:36:38.625Z,3.90
2023-04-13T15:39:07.247Z,3.40
2023-04-13T15:41:36.091Z,4.10
2023-04-13T15:44:04.681Z,3.70
2023-04-13T15:46:33.603Z,3.60
2023-04-13T15:49:02.784Z,3.40
2023-04-13T15:51:32.437Z,3.60
2023-04-13T15:54:01.607Z,3.60
2023-04-13T15:56:30.561Z,3.60
2023-04-13T15:58:59.201Z,3.60
2023-04-13T16:01:28.265Z,4.10
2023-04-13T16:03:57.982Z,3.90
2023-04-13T16:06:27.767Z,5.00
2023-04-13T16:09:01.026Z,3.70
2023-04-13T16:11:31.840Z,3.90
2023-04-13T16:14:07.469Z,4.30
2023-04-13T16:16:47.028Z,3.90
2023-04-13T16:19:18.585Z,4.10
2023-04-13T16:21:47.449Z,4.10
2023-04-13T16:24:17.380Z,4.50
2023-04-13T16:26:46.367Z,3.60
2023-04-13T16:29:14.942Z,4.20
2023-04-13T16:31:46.803Z,3.40
2023-04-13T16:34:25.722Z,4.10
2023-04-13T16:36:56.385Z,4.00
2023-04-13T16:39:25.144Z,4.20
2023-04-13T16:41:53.941Z,3.70
2023-04-13T16:44:22.523Z,5.30
2023-04-13T16:46:58.663Z,3.70
2023-04-13T16:49:28.198Z,3.90
2023-04-13T16:51:56.691Z,4.30
2023-04-13T16:54:27.987Z,4.30
2023-04-13T16:56:56.498Z,3.90
2023-04-13T16:59:25.175Z,4.00
2023-04-13T17:01:54.040Z,3.50
2023-04-13T17:04:22.683Z,4.40
2023-04-13T17:06:51.213Z,3.90
2023-04-13T17:09:19.699Z,4.40
2023-04-13T17:11:48.588Z,4.20
2023-04-13T17:14:17.676Z,3.70
2023-04-13T17:16:46.392Z,4.40
2023-04-13T17:19:15.989Z,4.30
2023-04-13T17:21:45.852Z,4.00
2023-04-13T17:24:14.477Z,4.20
2023-04-13T17:26:43.107Z,4.60
2023-04-13T17:29:11.987Z,4.40
2023-04-13T17:31:40.775Z,5.40
2023-04-13T17:34:09.747Z,4.50
2023-04-13T17:36:38.944Z,4.90
2023-04-13T17:39:08.604Z,4.50
2023-04-13T17:41:37.806Z,5.20
2023-04-13T17:44:06.788Z,4.70
2023-04-13T17:46:35.632Z,4.90
2023-04-13T17:49:04.222Z,4.20
2023-04-13T17:51:34.316Z,4.50
2023-04-13T17:54:07.863Z,4.90
2023-04-13T17:56:37.825Z,5.10
2023-04-13T17:59:06.239Z,5.90
2023-04-13T18:01:34.922Z,4.70
2023-04-13T18:04:07.030Z,4.70
2023-04-13T18:06:36.339Z,4.70
2023-04-13T18:09:05.168Z,4.60
2023-04-13T18:11:33.962Z,4.80
2023-04-13T18:14:03.201Z,4.60
2023-04-13T18:16:32.069Z,4.70
2023-04-13T18:19:01.475Z,4.90
2023-04-13T18:21:32.826Z,4.30
2023-04-13T18:24:02.204Z,4.70
2023-04-13T18:26:31.119Z,4.00
2023-04-13T18:29:00.898Z,4.40
2023-04-13T18:31:29.305Z,4.80
2023-04-13T18:33:58.607Z,4.40
2023-04-13T18:36:28.082Z,5.00
2023-04-13T18:38:58.265Z,4.80
2023-04-13T18:41:26.993Z,4.40
2023-04-13T18:43:57.603Z,4.80
2023-04-13T18:46:26.980Z,4.90
2023-04-13T18:48:55.445Z,4.30
2023-04-13T18:51:28.404Z,5.10
2023-04-13T18:53:57.457Z,4.50
2023-04-13T18:56:26.477Z,3.90
2023-04-13T18:58:56.216Z,4.20
2023-04-13T19:01:25.008Z,4.90
2023-04-13T19:03:54.011Z,4.20
2023-04-13T19:06:29.138Z,5.10
2023-04-13T19:08:57.895Z,4.80
2023-04-13T19:11:27.913Z,4.60
2023-04-13T19:13:57.020Z,4.80
2023-04-13T19:16:29.060Z,4.90
2023-04-13T19:18:59.906Z,4.50
2023-04-13T19:21:28.849Z,4.50
2023-04-13T19:24:01.211Z,4.60
2023-04-13T19:26:31.499Z,5.10
2023-04-13T19:29:01.205Z,4.70
2023-04-13T19:31:30.082Z,4.70
2023-04-13T19:33:58.841Z,4.40
2023-04-13T19:36:27.979Z,4.70
2023-04-13T19:38:56.792Z,4.10
2023-04-13T19:41:26.089Z,5.30
2023-04-13T19:43:54.752Z,5.10
2023-04-13T19:46:23.293Z,5.00
2023-04-13T19:48:52.133Z,4.60
2023-04-13T19:51:20.810Z,4.70
2023-04-13T19:53:49.612Z,4.60
2023-04-13T19:56:18.293Z,4.60
2023-04-13T19:58:47.384Z,4.90
2023-04-13T20:01:17.281Z,4.70
2023-04-13T20:03:48.696Z,4.90
2023-04-13T20:06:18.454Z,5.10
2023-04-13T20:08:46.942Z,4.80
2023-04-13T20:11:17.418Z,4.90
2023-04-13T20:13:47.481Z,5.40
2023-04-13T20:16:16.476Z,4.80
2023-04-13T20:18:46.128Z,4.70
2023-04-13T20:21:14.791Z,4.70
2023-04-13T20:23:43.606Z,4.70
2023-04-13T20:26:12.498Z,4.60
2023-04-13T20:28:41.031Z,5.00
2023-04-13T20:31:09.573Z,5.20
2023-04-13T20:33:38.650Z,4.60
2023-04-13T20:36:07.476Z,4.40
2023-04-13T20:38:36.673Z,4.10
2023-04-13T20:41:05.200Z,4.40
2023-04-13T20:43:33.663Z,4.40
2023-04-13T20:46:02.253Z,4.90
2023-04-13T20:51:08.073Z,4.90
2023-04-13T20:53:39.642Z,4.40
2023-04-13T20:56:09.081Z,4.00
2023-04-13T20:58:38.275Z,4.20
2023-04-13T21:04:00.772Z,4.20
2023-04-13T21:06:30.293Z,4.50
2023-04-13T21:08:59.803Z,4.50
2023-04-13T21:11:28.567Z,4.30
2023-04-13T21:13:57.145Z,3.90
2023-04-13T21:16:26.266Z,3.80
2023-04-13T21:18:57.267Z,4.00
2023-04-13T21:21:27.783Z,3.90
2023-04-13T21:23:57.159Z,4.40
2023-04-13T21:26:26.093Z,4.40
2023-04-13T21:28:55.287Z,4.20
2023-04-13T21:31:24.078Z,3.30
2023-04-13T21:33:55.181Z,2.90
2023-04-13T21:38:55.043Z,3.30
2023-04-13T21:41:23.461Z,3.30
2023-04-13T21:43:51.931Z,2.90
2023-04-13T21:46:20.829Z,3.20
2023-04-13T21:48:49.799Z,2.90
2023-04-13T21:51:18.374Z,3.50
2023-04-13T21:53:47.262Z,3.70
2023-04-13T21:56:15.785Z,3.20
2023-04-13T21:58:48.423Z,4.00
2023-04-13T22:01:17.354Z,3.20
2023-04-13T22:03:48.120Z,3.60
2023-04-13T22:06:16.850Z,3.00
2023-04-13T22:08:49.072Z,3.10
2023-04-13T22:11:17.791Z,3.00
2023-04-13T22:13:46.381Z,2.90
2023-04-13T22:16:15.229Z,3.50
2023-04-13T22:18:45.037Z,2.80
2023-04-13T22:21:13.462Z,3.20
2023-04-13T22:23:43.786Z,3.00
2023-04-13T22:26:12.678Z,3.10
2023-04-13T22:28:41.392Z,3.00
2023-04-13T22:31:13.280Z,3.00
2023-04-13T22:33:42.327Z,2.70
2023-04-13T22:36:20.853Z,3.10
2023-04-13T22:38:53.007Z,3.10
2023-04-13T22:41:21.383Z,2.70
2023-04-13T22:43:49.932Z,3.10
2023-04-13T22:46:18.873Z,3.00
2023-04-13T22:48:48.711Z,2.90
2023-04-13T22:51:17.149Z,2.90
2023-04-13T22:53:49.188Z,3.20
2023-04-13T22:56:18.009Z,2.80
2023-04-13T22:58:47.422Z,2.60
2023-04-13T23:01:16.493Z,2.90
2023-04-13T23:03:45.790Z,3.20
2023-04-13T23:06:14.590Z,3.20
2023-04-13T23:08:47.486Z,3.30
2023-04-13T23:11:17.843Z,3.00
2023-04-13T23:13:47.041Z,3.40
2023-04-13T23:16:20.753Z,2.70
2023-04-13T23:18:54.046Z,3.40
2023-04-13T23:21:22.793Z,4.10
2023-04-13T23:23:51.449Z,3.80
2023-04-13T23:26:19.961Z,3.20
2023-04-13T23:28:48.384Z,3.80
2023-04-13T23:31:21.743Z,3.10
2023-04-13T23:33:50.214Z,3.00
2023-04-13T23:36:18.889Z,3.00
2023-04-13T23:38:50.857Z,3.10
2023-04-13T23:41:19.239Z,2.80
2023-04-13T23:43:48.070Z,2.40
2023-04-13T23:46:17.580Z,2.70
2023-04-13T23:48:46.331Z,2.60
2023-04-13T23:51:14.904Z,2.40
2023-04-13T23:53:44.404Z,2.90
2023-04-13T23:56:12.984Z,2.90
2023-04-13T23:58:41.881Z,2.70
